sensor_id;sensor_type;location;lat;lon;timestamp;P1;durP1;ratioP1;P2;durP2;ratioP2
1350;SDS011;669;50.206;9.998;2022-07-29T00:01:40;2.00;;;1.80;;
1350;SDS011;669;50.206;9.998;2022-07-29T00:04:08;2.37;;;2.17;;
1350;SDS011;669;50.206;9.998;2022-07-29T00:06:36;4.33;;;2.17;;
1350;SDS011;669;50.206;9.998;2022-07-29T00:09:06;1.83;;;1.73;;
1350;SDS011;669;50.206;9.998;2022-07-29T00:11:34;1.90;;;1.67;;
1350;SDS011;669;50.206;9.998;2022-07-29T00:14:02;2.20;;;1.87;;
1350;SDS011;669;50.206;9.998;2022-07-29T00:16:30;1.73;;;1.63;;
1350;SDS011;669;50.206;9.998;2022-07-29T00:18:58;2.63;;;2.33;;
1350;SDS011;669;50.206;9.998;2022-07-29T00:21:27;2.90;;;1.93;;
1350;SDS011;669;50.206;9.998;2022-07-29T00:23:55;3.53;;;2.00;;
1350;SDS011;669;50.206;9.998;2022-07-29T00:26:25;3.80;;;2.40;;
1350;SDS011;669;50.206;9.998;2022-07-29T00:28:58;3.33;;;1.97;;
1350;SDS011;669;50.206;9.998;2022-07-29T00:31:46;2.40;;;1.87;;
1350;SDS011;669;50.206;9.998;2022-07-29T00:34:14;3.40;;;2.43;;
1350;SDS011;669;50.206;9.998;2022-07-29T00:36:56;3.10;;;2.30;;
1350;SDS011;669;50.206;9.998;2022-07-29T00:39:24;2.10;;;1.90;;
1350;SDS011;669;50.206;9.998;2022-07-29T00:41:54;2.23;;;1.93;;
1350;SDS011;669;50.206;9.998;2022-07-29T00:44:22;2.60;;;1.90;;
1350;SDS011;669;50.206;9.998;2022-07-29T00:46:49;3.03;;;2.07;;
1350;SDS011;669;50.206;9.998;2022-07-29T00:49:17;3.03;;;1.73;;
1350;SDS011;669;50.206;9.998;2022-07-29T00:51:45;2.63;;;2.37;;
1350;SDS011;669;50.206;9.998;2022-07-29T00:54:15;6.00;;;2.17;;
1350;SDS011;669;50.206;9.998;2022-07-29T00:56:44;2.63;;;2.43;;
1350;SDS011;669;50.206;9.998;2022-07-29T00:59:13;4.53;;;2.27;;
1350;SDS011;669;50.206;9.998;2022-07-29T01:01:41;2.10;;;1.93;;
1350;SDS011;669;50.206;9.998;2022-07-29T01:04:09;4.53;;;2.10;;
1350;SDS011;669;50.206;9.998;2022-07-29T01:06:39;2.97;;;2.37;;
1350;SDS011;669;50.206;9.998;2022-07-29T01:09:07;3.50;;;2.60;;
1350;SDS011;669;50.206;9.998;2022-07-29T01:11:37;1.80;;;1.70;;
1350;SDS011;669;50.206;9.998;2022-07-29T01:14:06;1.67;;;1.57;;
1350;SDS011;669;50.206;9.998;2022-07-29T01:16:37;2.60;;;2.37;;
1350;SDS011;669;50.206;9.998;2022-07-29T01:19:22;2.60;;;2.13;;
1350;SDS011;669;50.206;9.998;2022-07-29T01:22:16;1.53;;;1.43;;
1350;SDS011;669;50.206;9.998;2022-07-29T01:25:05;2.27;;;2.17;;
1350;SDS011;669;50.206;9.998;2022-07-29T01:27:43;2.40;;;2.20;;
1350;SDS011;669;50.206;9.998;2022-07-29T01:30:20;2.70;;;2.20;;
1350;SDS011;669;50.206;9.998;2022-07-29T01:32:49;1.90;;;1.80;;
1350;SDS011;669;50.206;9.998;2022-07-29T01:35:24;2.53;;;2.33;;
1350;SDS011;669;50.206;9.998;2022-07-29T01:37:55;1.70;;;1.60;;
1350;SDS011;669;50.206;9.998;2022-07-29T01:40:30;4.77;;;2.47;;
1350;SDS011;669;50.206;9.998;2022-07-29T01:43:05;3.30;;;2.00;;
1350;SDS011;669;50.206;9.998;2022-07-29T01:45:39;2.23;;;2.10;;
1350;SDS011;669;50.206;9.998;2022-07-29T01:48:10;4.00;;;2.33;;
1350;SDS011;669;50.206;9.998;2022-07-29T01:50:44;3.43;;;2.70;;
1350;SDS011;669;50.206;9.998;2022-07-29T01:53:16;2.10;;;2.00;;
1350;SDS011;669;50.206;9.998;2022-07-29T01:55:50;1.97;;;1.73;;
1350;SDS011;669;50.206;9.998;2022-07-29T01:58:24;2.80;;;1.90;;
1350;SDS011;669;50.206;9.998;2022-07-29T02:00:55;2.60;;;2.40;;
1350;SDS011;669;50.206;9.998;2022-07-29T02:03:24;2.30;;;1.63;;
1350;SDS011;669;50.206;9.998;2022-07-29T02:05:54;1.90;;;1.80;;
1350;SDS011;669;50.206;9.998;2022-07-29T02:08:23;2.80;;;2.00;;
1350;SDS011;669;50.206;9.998;2022-07-29T02:10:53;3.60;;;1.53;;
1350;SDS011;669;50.206;9.998;2022-07-29T02:13:22;2.40;;;2.20;;
1350;SDS011;669;50.206;9.998;2022-07-29T02:15:52;2.07;;;1.97;;
1350;SDS011;669;50.206;9.998;2022-07-29T02:18:24;1.93;;;1.73;;
1350;SDS011;669;50.206;9.998;2022-07-29T02:20:55;1.43;;;1.33;;
1350;SDS011;669;50.206;9.998;2022-07-29T02:23:25;2.07;;;1.80;;
1350;SDS011;669;50.206;9.998;2022-07-29T02:25:54;2.20;;;1.80;;
1350;SDS011;669;50.206;9.998;2022-07-29T02:28:25;1.90;;;1.80;;
1350;SDS011;669;50.206;9.998;2022-07-29T02:30:56;3.00;;;2.20;;
1350;SDS011;669;50.206;9.998;2022-07-29T02:33:27;2.97;;;2.20;;
1350;SDS011;669;50.206;9.998;2022-07-29T02:35:58;2.30;;;2.10;;
1350;SDS011;669;50.206;9.998;2022-07-29T02:38:28;2.43;;;1.80;;
1350;SDS011;669;50.206;9.998;2022-07-29T02:41:17;2.23;;;2.00;;
1350;SDS011;669;50.206;9.998;2022-07-29T02:43:47;2.10;;;1.87;;
1350;SDS011;669;50.206;9.998;2022-07-29T02:46:21;2.10;;;1.90;;
1350;SDS011;669;50.206;9.998;2022-07-29T02:48:59;3.57;;;2.20;;
1350;SDS011;669;50.206;9.998;2022-07-29T02:51:33;2.33;;;1.87;;
1350;SDS011;669;50.206;9.998;2022-07-29T02:54:10;2.20;;;1.67;;
1350;SDS011;669;50.206;9.998;2022-07-29T02:56:44;2.27;;;2.07;;
1350;SDS011;669;50.206;9.998;2022-07-29T02:59:13;2.43;;;1.90;;
1350;SDS011;669;50.206;9.998;2022-07-29T03:01:45;2.33;;;1.50;;
1350;SDS011;669;50.206;9.998;2022-07-29T03:04:15;1.80;;;1.70;;
1350;SDS011;669;50.206;9.998;2022-07-29T03:06:45;1.50;;;1.40;;
1350;SDS011;669;50.206;9.998;2022-07-29T03:09:14;1.97;;;1.87;;
1350;SDS011;669;50.206;9.998;2022-07-29T03:11:42;2.23;;;2.00;;
1350;SDS011;669;50.206;9.998;2022-07-29T03:14:16;2.23;;;2.03;;
1350;SDS011;669;50.206;9.998;2022-07-29T03:16:46;2.70;;;2.50;;
1350;SDS011;669;50.206;9.998;2022-07-29T03:19:17;3.00;;;1.90;;
1350;SDS011;669;50.206;9.998;2022-07-29T03:21:46;2.20;;;1.80;;
1350;SDS011;669;50.206;9.998;2022-07-29T03:24:24;1.90;;;1.80;;
1350;SDS011;669;50.206;9.998;2022-07-29T03:26:57;1.57;;;1.40;;
1350;SDS011;669;50.206;9.998;2022-07-29T03:29:25;2.27;;;2.07;;
1350;SDS011;669;50.206;9.998;2022-07-29T03:31:59;2.10;;;1.53;;
1350;SDS011;669;50.206;9.998;2022-07-29T03:34:34;3.13;;;1.67;;
1350;SDS011;669;50.206;9.998;2022-07-29T03:37:03;1.87;;;1.77;;
1350;SDS011;669;50.206;9.998;2022-07-29T03:39:33;1.63;;;1.53;;
1350;SDS011;669;50.206;9.998;2022-07-29T03:42:05;4.03;;;1.73;;
1350;SDS011;669;50.206;9.998;2022-07-29T03:44:36;1.73;;;1.63;;
1350;SDS011;669;50.206;9.998;2022-07-29T03:47:05;1.70;;;1.60;;
1350;SDS011;669;50.206;9.998;2022-07-29T03:49:36;1.77;;;1.40;;
1350;SDS011;669;50.206;9.998;2022-07-29T03:52:06;2.30;;;1.70;;
1350;SDS011;669;50.206;9.998;2022-07-29T03:54:34;1.60;;;1.50;;
1350;SDS011;669;50.206;9.998;2022-07-29T03:57:03;1.90;;;1.47;;
1350;SDS011;669;50.206;9.998;2022-07-29T03:59:32;1.73;;;1.63;;
1350;SDS011;669;50.206;9.998;2022-07-29T04:02:04;3.00;;;1.97;;
1350;SDS011;669;50.206;9.998;2022-07-29T04:04:32;2.37;;;1.60;;
1350;SDS011;669;50.206;9.998;2022-07-29T04:07:02;2.63;;;2.20;;
1350;SDS011;669;50.206;9.998;2022-07-29T04:09:31;2.10;;;1.97;;
1350;SDS011;669;50.206;9.998;2022-07-29T04:11:59;2.33;;;2.03;;
1350;SDS011;669;50.206;9.998;2022-07-29T04:14:30;1.53;;;1.43;;
1350;SDS011;669;50.206;9.998;2022-07-29T04:16:58;2.03;;;1.93;;
1350;SDS011;669;50.206;9.998;2022-07-29T04:19:26;2.73;;;1.77;;
1350;SDS011;669;50.206;9.998;2022-07-29T04:21:54;1.40;;;1.20;;
1350;SDS011;669;50.206;9.998;2022-07-29T04:24:24;1.23;;;1.23;;
1350;SDS011;669;50.206;9.998;2022-07-29T04:26:52;2.73;;;1.77;;
1350;SDS011;669;50.206;9.998;2022-07-29T04:29:20;2.27;;;2.07;;
1350;SDS011;669;50.206;9.998;2022-07-29T04:31:48;1.90;;;1.73;;
1350;SDS011;669;50.206;9.998;2022-07-29T04:34:16;1.53;;;1.43;;
1350;SDS011;669;50.206;9.998;2022-07-29T04:36:45;1.30;;;1.20;;
1350;SDS011;669;50.206;9.998;2022-07-29T04:39:13;2.03;;;1.83;;
1350;SDS011;669;50.206;9.998;2022-07-29T04:41:49;2.07;;;1.60;;
1350;SDS011;669;50.206;9.998;2022-07-29T04:44:20;1.73;;;1.63;;
1350;SDS011;669;50.206;9.998;2022-07-29T04:46:54;1.73;;;1.63;;
1350;SDS011;669;50.206;9.998;2022-07-29T04:49:23;2.37;;;1.80;;
1350;SDS011;669;50.206;9.998;2022-07-29T04:51:51;1.63;;;1.53;;
1350;SDS011;669;50.206;9.998;2022-07-29T04:54:19;2.17;;;1.97;;
1350;SDS011;669;50.206;9.998;2022-07-29T04:56:48;2.40;;;1.80;;
1350;SDS011;669;50.206;9.998;2022-07-29T04:59:16;1.50;;;1.40;;
1350;SDS011;669;50.206;9.998;2022-07-29T05:01:44;1.60;;;1.50;;
1350;SDS011;669;50.206;9.998;2022-07-29T05:04:12;1.60;;;1.50;;
1350;SDS011;669;50.206;9.998;2022-07-29T05:06:40;1.73;;;1.63;;
1350;SDS011;669;50.206;9.998;2022-07-29T05:09:08;2.57;;;1.90;;
1350;SDS011;669;50.206;9.998;2022-07-29T05:11:36;2.40;;;1.70;;
1350;SDS011;669;50.206;9.998;2022-07-29T05:14:05;1.77;;;1.67;;
1350;SDS011;669;50.206;9.998;2022-07-29T05:16:33;1.80;;;1.70;;
1350;SDS011;669;50.206;9.998;2022-07-29T05:19:02;1.70;;;1.60;;
1350;SDS011;669;50.206;9.998;2022-07-29T05:21:30;2.30;;;2.10;;
1350;SDS011;669;50.206;9.998;2022-07-29T05:23:58;1.90;;;1.80;;
1350;SDS011;669;50.206;9.998;2022-07-29T05:26:26;2.13;;;1.93;;
1350;SDS011;669;50.206;9.998;2022-07-29T05:28:54;1.70;;;1.60;;
1350;SDS011;669;50.206;9.998;2022-07-29T05:31:24;2.37;;;2.27;;
1350;SDS011;669;50.206;9.998;2022-07-29T05:33:52;2.03;;;1.93;;
1350;SDS011;669;50.206;9.998;2022-07-29T05:36:20;2.00;;;1.90;;
1350;SDS011;669;50.206;9.998;2022-07-29T05:38:48;2.50;;;2.30;;
1350;SDS011;669;50.206;9.998;2022-07-29T05:41:18;1.70;;;1.60;;
1350;SDS011;669;50.206;9.998;2022-07-29T05:43:46;2.37;;;1.63;;
1350;SDS011;669;50.206;9.998;2022-07-29T05:46:14;2.00;;;1.80;;
1350;SDS011;669;50.206;9.998;2022-07-29T05:48:43;2.60;;;2.00;;
1350;SDS011;669;50.206;9.998;2022-07-29T05:51:11;1.60;;;1.50;;
1350;SDS011;669;50.206;9.998;2022-07-29T05:53:39;1.80;;;1.70;;
1350;SDS011;669;50.206;9.998;2022-07-29T05:56:07;2.13;;;1.93;;
1350;SDS011;669;50.206;9.998;2022-07-29T05:58:35;2.40;;;1.63;;
1350;SDS011;669;50.206;9.998;2022-07-29T06:01:03;2.33;;;2.13;;
1350;SDS011;669;50.206;9.998;2022-07-29T06:03:32;1.70;;;1.60;;
1350;SDS011;669;50.206;9.998;2022-07-29T06:06:02;1.47;;;1.37;;
1350;SDS011;669;50.206;9.998;2022-07-29T06:08:30;1.73;;;1.63;;
1350;SDS011;669;50.206;9.998;2022-07-29T06:10:59;3.60;;;1.90;;
1350;SDS011;669;50.206;9.998;2022-07-29T06:13:28;1.40;;;1.30;;
1350;SDS011;669;50.206;9.998;2022-07-29T06:15:56;2.97;;;1.50;;
1350;SDS011;669;50.206;9.998;2022-07-29T06:18:24;3.20;;;2.03;;
1350;SDS011;669;50.206;9.998;2022-07-29T06:20:52;2.20;;;1.83;;
1350;SDS011;669;50.206;9.998;2022-07-29T06:23:22;1.87;;;1.73;;
1350;SDS011;669;50.206;9.998;2022-07-29T06:25:50;5.60;;;1.80;;
1350;SDS011;669;50.206;9.998;2022-07-29T06:28:18;2.27;;;2.07;;
1350;SDS011;669;50.206;9.998;2022-07-29T06:30:45;3.13;;;1.90;;
1350;SDS011;669;50.206;9.998;2022-07-29T06:33:17;2.40;;;2.10;;
1350;SDS011;669;50.206;9.998;2022-07-29T06:35:45;2.50;;;1.70;;
1350;SDS011;669;50.206;9.998;2022-07-29T06:38:21;3.10;;;1.90;;
1350;SDS011;669;50.206;9.998;2022-07-29T06:40:57;2.33;;;1.97;;
1350;SDS011;669;50.206;9.998;2022-07-29T06:43:30;3.40;;;1.77;;
1350;SDS011;669;50.206;9.998;2022-07-29T06:46:16;5.57;;;1.77;;
1350;SDS011;669;50.206;9.998;2022-07-29T06:48:45;3.90;;;2.00;;
1350;SDS011;669;50.206;9.998;2022-07-29T06:51:14;4.07;;;2.63;;
1350;SDS011;669;50.206;9.998;2022-07-29T06:53:49;2.53;;;2.20;;
1350;SDS011;669;50.206;9.998;2022-07-29T06:56:28;3.80;;;2.33;;
1350;SDS011;669;50.206;9.998;2022-07-29T06:59:04;2.80;;;1.90;;
1350;SDS011;669;50.206;9.998;2022-07-29T07:01:32;2.50;;;1.50;;
1350;SDS011;669;50.206;9.998;2022-07-29T07:04:00;4.70;;;2.20;;
1350;SDS011;669;50.206;9.998;2022-07-29T07:06:28;2.93;;;1.90;;
1350;SDS011;669;50.206;9.998;2022-07-29T07:08:57;4.43;;;2.10;;
1350;SDS011;669;50.206;9.998;2022-07-29T07:11:25;2.27;;;2.03;;
1350;SDS011;669;50.206;9.998;2022-07-29T07:13:53;2.90;;;2.07;;
1350;SDS011;669;50.206;9.998;2022-07-29T07:16:28;2.40;;;2.20;;
1350;SDS011;669;50.206;9.998;2022-07-29T07:18:57;4.23;;;2.20;;
1350;SDS011;669;50.206;9.998;2022-07-29T07:21:25;2.50;;;2.07;;
1350;SDS011;669;50.206;9.998;2022-07-29T07:23:57;3.43;;;2.30;;
1350;SDS011;669;50.206;9.998;2022-07-29T07:26:25;2.20;;;2.10;;
1350;SDS011;669;50.206;9.998;2022-07-29T07:28:54;3.37;;;2.10;;
1350;SDS011;669;50.206;9.998;2022-07-29T07:31:22;2.73;;;1.60;;
1350;SDS011;669;50.206;9.998;2022-07-29T07:33:50;2.37;;;2.17;;
1350;SDS011;669;50.206;9.998;2022-07-29T07:36:19;2.77;;;2.03;;
1350;SDS011;669;50.206;9.998;2022-07-29T07:38:47;4.03;;;2.10;;
1350;SDS011;669;50.206;9.998;2022-07-29T07:41:16;2.40;;;1.97;;
1350;SDS011;669;50.206;9.998;2022-07-29T07:43:45;2.83;;;1.93;;
1350;SDS011;669;50.206;9.998;2022-07-29T07:46:13;3.30;;;2.03;;
1350;SDS011;669;50.206;9.998;2022-07-29T07:48:41;3.70;;;2.23;;
1350;SDS011;669;50.206;9.998;2022-07-29T07:51:09;4.27;;;1.80;;
1350;SDS011;669;50.206;9.998;2022-07-29T07:53:37;2.30;;;1.60;;
1350;SDS011;669;50.206;9.998;2022-07-29T07:56:05;2.13;;;1.73;;
1350;SDS011;669;50.206;9.998;2022-07-29T07:58:38;5.77;;;2.40;;
1350;SDS011;669;50.206;9.998;2022-07-29T08:01:06;2.07;;;1.90;;
1350;SDS011;669;50.206;9.998;2022-07-29T08:03:34;6.50;;;1.90;;
1350;SDS011;669;50.206;9.998;2022-07-29T08:06:03;2.23;;;2.03;;
1350;SDS011;669;50.206;9.998;2022-07-29T08:08:31;4.20;;;1.80;;
1350;SDS011;669;50.206;9.998;2022-07-29T08:10:59;6.20;;;2.67;;
1350;SDS011;669;50.206;9.998;2022-07-29T08:13:34;2.17;;;1.70;;
1350;SDS011;669;50.206;9.998;2022-07-29T08:16:03;2.97;;;2.03;;
1350;SDS011;669;50.206;9.998;2022-07-29T08:18:39;2.70;;;2.50;;
1350;SDS011;669;50.206;9.998;2022-07-29T08:21:07;2.30;;;2.10;;
1350;SDS011;669;50.206;9.998;2022-07-29T08:23:40;3.50;;;1.87;;
1350;SDS011;669;50.206;9.998;2022-07-29T08:26:19;1.87;;;1.60;;
1350;SDS011;669;50.206;9.998;2022-07-29T08:28:48;2.07;;;1.97;;
1350;SDS011;669;50.206;9.998;2022-07-29T08:31:18;2.23;;;2.00;;
1350;SDS011;669;50.206;9.998;2022-07-29T08:33:46;5.93;;;2.47;;
1350;SDS011;669;50.206;9.998;2022-07-29T08:36:14;2.57;;;2.37;;
1350;SDS011;669;50.206;9.998;2022-07-29T08:38:42;2.73;;;1.70;;
1350;SDS011;669;50.206;9.998;2022-07-29T08:41:10;4.50;;;2.60;;
1350;SDS011;669;50.206;9.998;2022-07-29T08:43:39;3.23;;;2.60;;
1350;SDS011;669;50.206;9.998;2022-07-29T08:46:07;2.40;;;2.07;;
1350;SDS011;669;50.206;9.998;2022-07-29T08:48:37;2.37;;;2.17;;
1350;SDS011;669;50.206;9.998;2022-07-29T08:51:08;2.07;;;1.87;;
1350;SDS011;669;50.206;9.998;2022-07-29T08:53:41;2.77;;;2.40;;
1350;SDS011;669;50.206;9.998;2022-07-29T08:56:11;1.83;;;1.70;;
1350;SDS011;669;50.206;9.998;2022-07-29T08:58:40;2.33;;;1.90;;
1350;SDS011;669;50.206;9.998;2022-07-29T09:01:17;2.30;;;2.20;;
1350;SDS011;669;50.206;9.998;2022-07-29T09:04:10;3.57;;;2.33;;
1350;SDS011;669;50.206;9.998;2022-07-29T09:06:41;6.10;;;3.37;;
1350;SDS011;669;50.206;9.998;2022-07-29T09:09:12;3.37;;;3.00;;
1350;SDS011;669;50.206;9.998;2022-07-29T09:11:40;3.53;;;2.97;;
1350;SDS011;669;50.206;9.998;2022-07-29T09:14:10;6.97;;;3.37;;
1350;SDS011;669;50.206;9.998;2022-07-29T09:16:49;3.63;;;3.20;;
1350;SDS011;669;50.206;9.998;2022-07-29T09:19:22;5.27;;;2.80;;
1350;SDS011;669;50.206;9.998;2022-07-29T09:21:51;4.00;;;2.97;;
1350;SDS011;669;50.206;9.998;2022-07-29T09:24:39;3.20;;;2.77;;
1350;SDS011;669;50.206;9.998;2022-07-29T09:27:09;5.63;;;3.27;;
1350;SDS011;669;50.206;9.998;2022-07-29T09:29:38;2.93;;;2.73;;
1350;SDS011;669;50.206;9.998;2022-07-29T09:32:08;5.43;;;3.07;;
1350;SDS011;669;50.206;9.998;2022-07-29T09:34:38;2.70;;;2.50;;
1350;SDS011;669;50.206;9.998;2022-07-29T09:37:06;5.97;;;2.63;;
1350;SDS011;669;50.206;9.998;2022-07-29T09:39:35;5.20;;;3.10;;
1350;SDS011;669;50.206;9.998;2022-07-29T09:42:12;2.80;;;2.60;;
1350;SDS011;669;50.206;9.998;2022-07-29T09:44:43;5.83;;;2.63;;
1350;SDS011;669;50.206;9.998;2022-07-29T09:47:11;2.80;;;2.60;;
1350;SDS011;669;50.206;9.998;2022-07-29T09:49:51;3.00;;;2.67;;
1350;SDS011;669;50.206;9.998;2022-07-29T09:52:21;2.80;;;2.60;;
1350;SDS011;669;50.206;9.998;2022-07-29T09:54:50;3.33;;;3.03;;
1350;SDS011;669;50.206;9.998;2022-07-29T09:57:24;2.33;;;2.20;;
1350;SDS011;669;50.206;9.998;2022-07-29T09:59:57;3.60;;;3.30;;
1350;SDS011;669;50.206;9.998;2022-07-29T10:02:29;2.80;;;2.60;;
1350;SDS011;669;50.206;9.998;2022-07-29T10:05:01;2.83;;;2.60;;
1350;SDS011;669;50.206;9.998;2022-07-29T10:07:43;5.77;;;2.70;;
1350;SDS011;669;50.206;9.998;2022-07-29T10:10:19;2.70;;;2.50;;
1350;SDS011;669;50.206;9.998;2022-07-29T10:12:48;3.50;;;3.20;;
1350;SDS011;669;50.206;9.998;2022-07-29T10:15:18;2.80;;;2.47;;
1350;SDS011;669;50.206;9.998;2022-07-29T10:17:47;2.60;;;2.40;;
1350;SDS011;669;50.206;9.998;2022-07-29T10:20:17;3.00;;;2.57;;
1350;SDS011;669;50.206;9.998;2022-07-29T10:22:46;4.10;;;2.80;;
1350;SDS011;669;50.206;9.998;2022-07-29T10:25:19;3.43;;;3.13;;
1350;SDS011;669;50.206;9.998;2022-07-29T10:27:48;4.07;;;3.50;;
1350;SDS011;669;50.206;9.998;2022-07-29T10:30:18;2.93;;;2.70;;
1350;SDS011;669;50.206;9.998;2022-07-29T10:32:59;3.10;;;2.80;;
1350;SDS011;669;50.206;9.998;2022-07-29T10:35:59;2.80;;;2.60;;
1350;SDS011;669;50.206;9.998;2022-07-29T10:38:45;3.63;;;2.80;;
1350;SDS011;669;50.206;9.998;2022-07-29T10:44:30;3.90;;;2.30;;
1350;SDS011;669;50.206;9.998;2022-07-29T10:47:00;4.00;;;2.37;;
1350;SDS011;669;50.206;9.998;2022-07-29T10:49:28;2.70;;;2.50;;
1350;SDS011;669;50.206;9.998;2022-07-29T10:52:02;3.10;;;2.90;;
1350;SDS011;669;50.206;9.998;2022-07-29T10:54:44;4.40;;;2.97;;
1350;SDS011;669;50.206;9.998;2022-07-29T10:57:20;2.97;;;2.40;;
1350;SDS011;669;50.206;9.998;2022-07-29T11:00:26;2.60;;;2.40;;
1350;SDS011;669;50.206;9.998;2022-07-29T11:02:58;2.97;;;2.70;;
1350;SDS011;669;50.206;9.998;2022-07-29T11:08:26;3.33;;;3.10;;
1350;SDS011;669;50.206;9.998;2022-07-29T11:14:00;3.87;;;3.07;;
1350;SDS011;669;50.206;9.998;2022-07-29T11:16:57;2.63;;;2.50;;
1350;SDS011;669;50.206;9.998;2022-07-29T11:19:31;3.30;;;3.00;;
1350;SDS011;669;50.206;9.998;2022-07-29T11:22:01;4.70;;;3.03;;
1350;SDS011;669;50.206;9.998;2022-07-29T11:24:32;3.57;;;3.10;;
1350;SDS011;669;50.206;9.998;2022-07-29T11:27:07;4.57;;;2.87;;
1350;SDS011;669;50.206;9.998;2022-07-29T11:29:39;4.53;;;3.10;;
1350;SDS011;669;50.206;9.998;2022-07-29T11:32:19;5.20;;;2.53;;
1350;SDS011;669;50.206;9.998;2022-07-29T11:34:49;4.40;;;3.03;;
1350;SDS011;669;50.206;9.998;2022-07-29T11:37:43;5.83;;;2.80;;
1350;SDS011;669;50.206;9.998;2022-07-29T11:40:24;3.63;;;3.20;;
1350;SDS011;669;50.206;9.998;2022-07-29T11:42:52;6.70;;;2.97;;
1350;SDS011;669;50.206;9.998;2022-07-29T11:45:24;2.77;;;2.50;;
1350;SDS011;669;50.206;9.998;2022-07-29T11:48:14;2.73;;;2.53;;
1350;SDS011;669;50.206;9.998;2022-07-29T11:51:04;3.20;;;2.97;;
1350;SDS011;669;50.206;9.998;2022-07-29T11:53:38;2.50;;;2.30;;
1350;SDS011;669;50.206;9.998;2022-07-29T11:56:08;3.10;;;2.90;;
1350;SDS011;669;50.206;9.998;2022-07-29T11:58:42;2.17;;;2.03;;
1350;SDS011;669;50.206;9.998;2022-07-29T12:01:12;3.07;;;2.63;;
1350;SDS011;669;50.206;9.998;2022-07-29T12:03:41;3.10;;;2.80;;
1350;SDS011;669;50.206;9.998;2022-07-29T12:06:13;3.27;;;2.97;;
1350;SDS011;669;50.206;9.998;2022-07-29T12:08:46;7.67;;;2.47;;
1350;SDS011;669;50.206;9.998;2022-07-29T12:11:19;2.83;;;2.23;;
1350;SDS011;669;50.206;9.998;2022-07-29T12:13:49;2.63;;;2.43;;
1350;SDS011;669;50.206;9.998;2022-07-29T12:16:17;3.00;;;2.57;;
1350;SDS011;669;50.206;9.998;2022-07-29T12:18:55;2.90;;;2.47;;
1350;SDS011;669;50.206;9.998;2022-07-29T12:21:24;2.80;;;2.57;;
1350;SDS011;669;50.206;9.998;2022-07-29T12:23:54;2.77;;;2.27;;
1350;SDS011;669;50.206;9.998;2022-07-29T12:26:35;2.67;;;2.47;;
1350;SDS011;669;50.206;9.998;2022-07-29T12:29:05;2.80;;;2.60;;
1350;SDS011;669;50.206;9.998;2022-07-29T12:31:40;5.37;;;2.27;;
1350;SDS011;669;50.206;9.998;2022-07-29T12:34:10;2.43;;;2.23;;
1350;SDS011;669;50.206;9.998;2022-07-29T12:36:39;6.63;;;2.47;;
1350;SDS011;669;50.206;9.998;2022-07-29T12:39:09;2.70;;;2.60;;
1350;SDS011;669;50.206;9.998;2022-07-29T12:41:39;6.13;;;2.70;;
1350;SDS011;669;50.206;9.998;2022-07-29T12:44:07;2.60;;;2.40;;
1350;SDS011;669;50.206;9.998;2022-07-29T12:46:35;2.90;;;2.70;;
1350;SDS011;669;50.206;9.998;2022-07-29T12:49:04;2.83;;;2.63;;
1350;SDS011;669;50.206;9.998;2022-07-29T12:51:33;2.57;;;2.37;;
1350;SDS011;669;50.206;9.998;2022-07-29T12:54:04;2.73;;;2.43;;
1350;SDS011;669;50.206;9.998;2022-07-29T12:56:34;3.63;;;2.47;;
1350;SDS011;669;50.206;9.998;2022-07-29T12:59:12;2.50;;;2.40;;
1350;SDS011;669;50.206;9.998;2022-07-29T13:01:42;5.97;;;2.63;;
1350;SDS011;669;50.206;9.998;2022-07-29T13:04:10;2.83;;;2.50;;
1350;SDS011;669;50.206;9.998;2022-07-29T13:06:57;2.93;;;2.10;;
1350;SDS011;669;50.206;9.998;2022-07-29T13:09:35;4.07;;;2.47;;
1350;SDS011;669;50.206;9.998;2022-07-29T13:12:05;3.37;;;3.17;;
1350;SDS011;669;50.206;9.998;2022-07-29T13:14:38;3.60;;;3.30;;
1350;SDS011;669;50.206;9.998;2022-07-29T13:17:08;2.93;;;2.73;;
1350;SDS011;669;50.206;9.998;2022-07-29T13:19:37;2.67;;;2.47;;
1350;SDS011;669;50.206;9.998;2022-07-29T13:22:07;2.90;;;2.80;;
1350;SDS011;669;50.206;9.998;2022-07-29T13:24:44;2.77;;;2.40;;
1350;SDS011;669;50.206;9.998;2022-07-29T13:27:13;2.87;;;2.73;;
1350;SDS011;669;50.206;9.998;2022-07-29T13:29:43;2.60;;;2.50;;
1350;SDS011;669;50.206;9.998;2022-07-29T13:32:12;2.60;;;2.40;;
1350;SDS011;669;50.206;9.998;2022-07-29T13:34:40;2.93;;;2.73;;
1350;SDS011;669;50.206;9.998;2022-07-29T13:37:08;3.00;;;2.80;;
1350;SDS011;669;50.206;9.998;2022-07-29T13:39:36;2.60;;;2.40;;
1350;SDS011;669;50.206;9.998;2022-07-29T13:42:04;3.10;;;2.90;;
1350;SDS011;669;50.206;9.998;2022-07-29T13:44:36;2.70;;;2.60;;
1350;SDS011;669;50.206;9.998;2022-07-29T13:47:05;2.80;;;2.53;;
1350;SDS011;669;50.206;9.998;2022-07-29T13:49:34;2.40;;;2.30;;
1350;SDS011;669;50.206;9.998;2022-07-29T13:52:02;2.53;;;2.43;;
1350;SDS011;669;50.206;9.998;2022-07-29T13:54:33;5.90;;;2.37;;
1350;SDS011;669;50.206;9.998;2022-07-29T13:57:07;2.50;;;2.30;;
1350;SDS011;669;50.206;9.998;2022-07-29T13:59:37;2.30;;;2.20;;
1350;SDS011;669;50.206;9.998;2022-07-29T14:02:06;3.20;;;2.57;;
1350;SDS011;669;50.206;9.998;2022-07-29T14:04:36;2.63;;;2.53;;
1350;SDS011;669;50.206;9.998;2022-07-29T14:07:05;2.60;;;2.40;;
1350;SDS011;669;50.206;9.998;2022-07-29T14:09:33;2.80;;;2.60;;
1350;SDS011;669;50.206;9.998;2022-07-29T14:12:07;3.43;;;3.13;;
1350;SDS011;669;50.206;9.998;2022-07-29T14:14:35;2.90;;;2.67;;
1350;SDS011;669;50.206;9.998;2022-07-29T14:17:03;3.90;;;2.70;;
1350;SDS011;669;50.206;9.998;2022-07-29T14:19:34;3.00;;;2.80;;
1350;SDS011;669;50.206;9.998;2022-07-29T14:22:04;3.13;;;2.87;;
1350;SDS011;669;50.206;9.998;2022-07-29T14:24:34;2.87;;;2.77;;
1350;SDS011;669;50.206;9.998;2022-07-29T14:27:03;2.97;;;2.40;;
1350;SDS011;669;50.206;9.998;2022-07-29T14:29:31;3.43;;;2.90;;
1350;SDS011;669;50.206;9.998;2022-07-29T14:32:04;2.73;;;2.53;;
1350;SDS011;669;50.206;9.998;2022-07-29T14:34:34;2.60;;;2.50;;
1350;SDS011;669;50.206;9.998;2022-07-29T14:37:02;3.60;;;3.33;;
1350;SDS011;669;50.206;9.998;2022-07-29T14:39:32;5.03;;;3.07;;
1350;SDS011;669;50.206;9.998;2022-07-29T14:42:08;2.97;;;2.70;;
1350;SDS011;669;50.206;9.998;2022-07-29T14:44:37;3.10;;;2.83;;
1350;SDS011;669;50.206;9.998;2022-07-29T14:47:06;2.93;;;2.67;;
1350;SDS011;669;50.206;9.998;2022-07-29T14:49:36;2.77;;;2.60;;
1350;SDS011;669;50.206;9.998;2022-07-29T14:52:04;2.17;;;2.07;;
1350;SDS011;669;50.206;9.998;2022-07-29T14:54:32;3.23;;;3.00;;
1350;SDS011;669;50.206;9.998;2022-07-29T14:57:00;2.63;;;2.47;;
1350;SDS011;669;50.206;9.998;2022-07-29T14:59:28;3.17;;;2.97;;
1350;SDS011;669;50.206;9.998;2022-07-29T15:01:56;3.33;;;3.03;;
1350;SDS011;669;50.206;9.998;2022-07-29T15:04:24;2.43;;;2.33;;
1350;SDS011;669;50.206;9.998;2022-07-29T15:06:53;2.27;;;2.17;;
1350;SDS011;669;50.206;9.998;2022-07-29T15:09:21;3.07;;;2.77;;
1350;SDS011;669;50.206;9.998;2022-07-29T15:11:49;2.40;;;2.30;;
1350;SDS011;669;50.206;9.998;2022-07-29T15:14:17;3.07;;;2.87;;
1350;SDS011;669;50.206;9.998;2022-07-29T15:16:45;3.00;;;2.40;;
1350;SDS011;669;50.206;9.998;2022-07-29T15:19:13;2.40;;;2.23;;
1350;SDS011;669;50.206;9.998;2022-07-29T15:21:41;4.40;;;2.70;;
1350;SDS011;669;50.206;9.998;2022-07-29T15:24:15;3.10;;;2.90;;
1350;SDS011;669;50.206;9.998;2022-07-29T15:26:44;2.97;;;2.77;;
1350;SDS011;669;50.206;9.998;2022-07-29T15:29:12;3.13;;;2.90;;
1350;SDS011;669;50.206;9.998;2022-07-29T15:31:41;4.83;;;3.20;;
1350;SDS011;669;50.206;9.998;2022-07-29T15:34:09;3.30;;;2.27;;
1350;SDS011;669;50.206;9.998;2022-07-29T15:36:38;3.00;;;2.80;;
1350;SDS011;669;50.206;9.998;2022-07-29T15:39:23;2.47;;;2.27;;
1350;SDS011;669;50.206;9.998;2022-07-29T15:41:51;3.17;;;2.87;;
1350;SDS011;669;50.206;9.998;2022-07-29T15:44:19;3.10;;;2.87;;
1350;SDS011;669;50.206;9.998;2022-07-29T15:46:48;3.23;;;2.53;;
1350;SDS011;669;50.206;9.998;2022-07-29T15:49:33;3.60;;;2.50;;
1350;SDS011;669;50.206;9.998;2022-07-29T15:52:15;5.47;;;3.13;;
1350;SDS011;669;50.206;9.998;2022-07-29T15:54:52;3.13;;;2.30;;
1350;SDS011;669;50.206;9.998;2022-07-29T15:57:21;5.00;;;2.50;;
1350;SDS011;669;50.206;9.998;2022-07-29T15:59:50;2.90;;;2.70;;
1350;SDS011;669;50.206;9.998;2022-07-29T16:02:18;2.50;;;2.30;;
1350;SDS011;669;50.206;9.998;2022-07-29T16:04:46;3.03;;;2.63;;